Time;durP1;ratioP1;P1;durP2;ratioP2;P2;SDS_P1;SDS_P2;PMS_P1;PMS_P2;Temp;Humidity;BMP_temperature;BMP_pressure;BME280_temperature;BME280_humidity;BME280_pressure;Samples;Min_cycle;Max_cycle;Signal;HPM_P1;HPM_P2
2021/04/14 00:01:31;;;;;;;12.02;2.63;;;5.50;99.50;;;;;;5073775;28;20222;-49
2021/04/14 00:03:58;;;;;;;7.97;2.95;;;5.60;99.30;;;;;;5071371;28;20211;-49
2021/04/14 00:06:25;;;;;;;7.88;2.60;;;5.60;99.40;;;;;;5073785;28;20656;-50
2021/04/14 00:08:51;;;;;;;9.75;2.08;;;5.50;99.40;;;;;;5073056;28;20722;-50
2021/04/14 00:11:20;;;;;;;6.10;1.98;;;5.50;99.30;;;;;;5073526;28;20210;-50
2021/04/14 00:13:47;;;;;;;5.03;1.98;;;5.40;99.20;;;;;;5073140;28;20199;-50
2021/04/14 00:16:14;;;;;;;4.60;2.30;;;5.10;98.80;;;;;;5073025;28;20219;-50
2021/04/14 00:18:41;;;;;;;14.85;2.83;;;5.20;99.10;;;;;;5072808;28;20440;-50
2021/04/14 00:21:07;;;;;;;11.25;2.65;;;5.60;99.40;;;;;;5072824;28;20595;-50
2021/04/14 00:23:34;;;;;;;7.40;2.20;;;5.40;99.10;;;;;;5072760;28;20195;-49
2021/04/14 00:26:01;;;;;;;10.00;2.40;;;5.40;99.10;;;;;;5073032;28;20272;-49
2021/04/14 00:28:27;;;;;;;9.32;2.08;;;5.50;99.40;;;;;;5073253;28;20199;-50
2021/04/14 00:30:54;;;;;;;8.25;2.55;;;5.50;99.40;;;;;;5072819;28;20218;-49
2021/04/14 00:33:21;;;;;;;7.95;2.10;;;5.40;99.20;;;;;;5072510;28;20221;-49
2021/04/14 00:35:48;;;;;;;7.07;1.95;;;5.30;99.30;;;;;;5074818;28;20192;-48
2021/04/14 00:38:16;;;;;;;7.82;2.10;;;5.20;98.90;;;;;;5076587;28;20191;-49
2021/04/14 00:40:46;;;;;;;8.27;2.20;;;5.10;99.20;;;;;;5076474;28;20226;-49
2021/04/14 00:43:14;;;;;;;6.55;2.35;;;5.30;99.20;;;;;;5075935;28;20582;-49
2021/04/14 00:45:41;;;;;;;7.05;2.53;;;5.20;99.30;;;;;;5076043;28;20215;-49
2021/04/14 00:48:08;;;;;;;5.82;2.20;;;5.20;99.30;;;;;;5076396;28;20588;-49
2021/04/14 00:50:36;;;;;;;8.40;2.28;;;5.40;99.20;;;;;;5075801;28;20233;-49
2021/04/14 00:53:03;;;;;;;10.48;2.60;;;5.20;99.40;;;;;;5074810;28;20278;-50
2021/04/14 00:55:30;;;;;;;9.50;2.20;;;5.20;99.40;;;;;;5075859;28;20672;-49
2021/04/14 00:57:58;;;;;;;7.45;2.53;;;5.00;99.50;;;;;;5075748;28;20267;-49
2021/04/14 01:00:32;;;;;;;6.82;2.10;;;4.90;99.30;;;;;;5076078;28;20233;-50
2021/04/14 01:02:59;;;;;;;7.35;2.20;;;5.10;99.60;;;;;;5075448;28;20207;-49
2021/04/14 01:05:26;;;;;;;8.32;2.47;;;5.10;99.30;;;;;;5076347;28;20215;-49
2021/04/14 01:07:53;;;;;;;9.30;2.83;;;4.90;99.30;;;;;;5075456;28;20260;-50
2021/04/14 01:10:19;;;;;;;7.05;2.38;;;5.10;99.80;;;;;;5075688;28;20215;-50
2021/04/14 01:12:46;;;;;;;5.65;2.05;;;5.10;99.90;;;;;;5074044;28;20203;-49
2021/04/14 01:15:17;;;;;;;8.43;2.30;;;4.90;99.90;;;;;;5075786;28;20206;-50
2021/04/14 01:17:44;;;;;;;7.85;2.72;;;5.20;99.90;;;;;;5075711;28;20207;-49
2021/04/14 01:20:10;;;;;;;7.25;3.78;;;4.90;99.90;;;;;;5075381;28;20219;-50
2021/04/14 01:22:37;;;;;;;8.52;1.90;;;4.90;99.90;;;;;;5075757;28;20706;-49
2021/04/14 01:25:07;;;;;;;8.88;2.40;;;4.90;99.90;;;;;;5075202;28;20218;-50
2021/04/14 01:27:34;;;;;;;8.38;2.17;;;5.00;99.90;;;;;;5075595;28;20195;-49
2021/04/14 01:30:01;;;;;;;10.93;2.28;;;4.50;99.90;;;;;;5075267;28;20211;-49
2021/04/14 01:32:29;;;;;;;14.10;2.70;;;4.70;99.90;;;;;;5075167;28;20258;-49
2021/04/14 01:34:55;;;;;;;10.85;2.70;;;4.80;99.90;;;;;;5075560;28;20660;-49
2021/04/14 01:37:21;;;;;;;11.07;2.38;;;4.70;99.90;;;;;;5073926;28;20260;-49
2021/04/14 01:39:48;;;;;;;8.30;2.45;;;4.70;99.90;;;;;;5075361;28;20219;-49
2021/04/14 01:42:15;;;;;;;8.50;2.53;;;4.60;99.90;;;;;;5074733;28;20199;-48
2021/04/14 01:44:41;;;;;;;9.98;2.83;;;4.80;99.90;;;;;;5074592;28;20532;-49
2021/04/14 01:47:07;;;;;;;11.73;2.28;;;4.60;99.90;;;;;;5074499;28;20659;-48
2021/04/14 01:49:33;;;;;;;7.75;2.40;;;4.60;99.90;;;;;;5074348;28;20219;-49
2021/04/14 01:52:01;;;;;;;15.50;3.25;;;4.60;99.90;;;;;;5074567;28;20214;-49
2021/04/14 01:54:27;;;;;;;8.50;2.17;;;4.60;99.90;;;;;;5074429;28;20195;-50
2021/04/14 01:56:54;;;;;;;9.82;2.45;;;4.40;99.90;;;;;;5075159;28;20248;-49
2021/04/14 01:59:20;;;;;;;9.77;3.00;;;4.40;99.90;;;;;;5074859;28;20215;-49
2021/04/14 02:01:47;;;;;;;9.23;2.65;;;4.50;99.90;;;;;;5074282;28;20199;-49
2021/04/14 02:04:13;;;;;;;12.60;3.88;;;4.30;99.90;;;;;;5074346;28;20205;-50
2021/04/14 02:06:39;;;;;;;8.95;2.20;;;4.40;99.90;;;;;;5074319;28;20219;-49
2021/04/14 02:09:06;;;;;;;8.48;2.90;;;4.30;99.90;;;;;;5074222;28;20222;-50
2021/04/14 02:11:32;;;;;;;13.35;2.33;;;4.30;99.90;;;;;;5074043;28;20218;-49
2021/04/14 02:13:59;;;;;;;9.55;2.65;;;4.30;99.90;;;;;;5073793;28;20622;-50
2021/04/14 02:16:25;;;;;;;9.02;2.60;;;4.10;99.90;;;;;;5074136;28;20219;-50
2021/04/14 02:18:53;;;;;;;9.77;2.85;;;4.40;99.90;;;;;;5074178;28;20206;-50
2021/04/14 02:21:21;;;;;;;13.23;4.00;;;4.10;99.90;;;;;;5073773;28;20195;-47
2021/04/14 02:23:49;;;;;;;9.80;2.53;;;4.20;99.90;;;;;;5072603;28;20195;-51
2021/04/14 02:26:17;;;;;;;10.88;2.33;;;4.40;99.90;;;;;;5073620;28;20219;-49
2021/04/14 02:28:45;;;;;;;7.60;2.08;;;4.30;99.90;;;;;;5074152;28;20623;-48
2021/04/14 02:31:14;;;;;;;7.00;2.55;;;4.20;99.90;;;;;;5073850;28;20206;-49
2021/04/14 02:33:41;;;;;;;10.27;2.63;;;4.20;99.90;;;;;;5074174;28;20203;-49
2021/04/14 02:36:08;;;;;;;9.63;3.10;;;4.10;99.90;;;;;;5073680;28;20674;-50
2021/04/14 02:38:34;;;;;;;6.32;2.35;;;4.00;99.90;;;;;;5073686;28;20594;-49
2021/04/14 02:41:01;;;;;;;27.13;4.38;;;4.00;99.90;;;;;;5073790;28;20215;-49
2021/04/14 02:43:27;;;;;;;9.82;3.03;;;4.10;99.90;;;;;;5073432;28;20191;-50
2021/04/14 02:45:53;;;;;;;10.95;3.13;;;3.90;99.90;;;;;;5073155;28;20505;-49
2021/04/14 02:48:20;;;;;;;8.13;2.80;;;4.10;99.90;;;;;;5073305;28;20686;-49
2021/04/14 02:50:47;;;;;;;12.57;2.85;;;4.10;99.90;;;;;;5073387;28;20215;-49
2021/04/14 02:53:13;;;;;;;9.70;2.75;;;3.70;99.90;;;;;;5073179;28;20195;-49
2021/04/14 02:55:39;;;;;;;11.00;2.55;;;4.10;99.90;;;;;;5073398;28;20195;-48
2021/04/14 02:58:06;;;;;;;12.88;2.67;;;4.10;99.90;;;;;;5072698;28;20238;-49
2021/04/14 03:00:33;;;;;;;9.00;2.22;;;3.80;99.90;;;;;;5073728;28;20314;-49
2021/04/14 03:03:00;;;;;;;15.02;2.70;;;4.10;99.90;;;;;;5071843;28;20572;-49
2021/04/14 03:05:30;;;;;;;9.20;2.85;;;4.10;99.90;;;;;;5072113;28;20207;-49
2021/04/14 03:07:57;;;;;;;10.65;2.80;;;4.10;99.90;;;;;;5073489;28;20207;-49
2021/04/14 03:10:24;;;;;;;7.32;2.60;;;4.00;99.90;;;;;;5073297;28;20265;-49
2021/04/14 03:12:51;;;;;;;11.75;2.67;;;3.70;99.90;;;;;;5073230;28;20198;-48
2021/04/14 03:15:23;;;;;;;13.07;2.97;;;3.80;99.90;;;;;;5073119;28;20668;-49
2021/04/14 03:17:49;;;;;;;7.72;3.58;;;4.10;99.90;;;;;;5072951;28;20199;-49
2021/04/14 03:20:16;;;;;;;10.88;2.72;;;3.90;99.90;;;;;;5072745;28;20292;-49
2021/04/14 03:22:43;;;;;;;8.13;2.47;;;3.40;99.90;;;;;;5072430;28;20195;-48
2021/04/14 03:25:11;;;;;;;13.18;4.05;;;3.90;99.90;;;;;;5072954;28;20211;-49
2021/04/14 03:27:37;;;;;;;11.98;2.65;;;3.90;99.90;;;;;;5072956;28;20278;-49
2021/04/14 03:30:05;;;;;;;11.93;3.17;;;3.60;99.90;;;;;;5072395;28;20215;-48
2021/04/14 03:32:31;;;;;;;8.60;3.10;;;3.80;99.90;;;;;;5072854;28;20474;-49
2021/04/14 03:34:57;;;;;;;8.38;2.85;;;3.90;99.90;;;;;;5073240;28;20199;-51
2021/04/14 03:37:24;;;;;;;7.05;2.50;;;3.80;99.90;;;;;;5072116;28;20286;-50
2021/04/14 03:39:51;;;;;;;10.68;3.58;;;3.80;99.90;;;;;;5073000;28;20269;-50
2021/04/14 03:42:17;;;;;;;11.32;2.90;;;3.80;99.90;;;;;;5072706;28;20187;-49
2021/04/14 03:44:43;;;;;;;14.25;3.78;;;3.70;99.90;;;;;;5072251;28;20222;-49
2021/04/14 03:47:09;;;;;;;19.08;4.38;;;3.80;99.90;;;;;;5072463;28;20195;-50
2021/04/14 03:49:36;;;;;;;13.93;3.47;;;3.60;99.90;;;;;;5072778;28;20323;-48
2021/04/14 03:52:02;;;;;;;14.52;3.53;;;3.50;99.90;;;;;;5072899;28;20214;-49
2021/04/14 03:54:29;;;;;;;15.32;3.40;;;3.60;99.90;;;;;;5072252;28;20214;-49
2021/04/14 03:56:56;;;;;;;7.75;3.22;;;3.40;99.90;;;;;;5072206;28;20199;-50
2021/04/14 03:59:23;;;;;;;8.50;2.55;;;3.00;99.90;;;;;;5072423;28;20294;-50
2021/04/14 04:01:49;;;;;;;12.23;3.10;;;3.40;99.90;;;;;;5071368;28;20272;-50
2021/04/14 04:04:15;;;;;;;12.38;3.28;;;3.70;99.90;;;;;;5072573;28;20219;-50
2021/04/14 04:06:41;;;;;;;10.52;3.95;;;3.50;99.90;;;;;;5072632;28;20260;-50
2021/04/14 04:09:08;;;;;;;8.43;3.40;;;3.50;99.90;;;;;;5073743;28;20234;-50
2021/04/14 04:11:34;;;;;;;6.32;2.72;;;3.30;99.90;;;;;;5076613;28;20202;-50
2021/04/14 04:14:01;;;;;;;9.13;2.92;;;3.60;99.90;;;;;;5076011;28;20571;-50
2021/04/14 04:16:28;;;;;;;15.40;3.55;;;3.50;99.90;;;;;;5076694;28;20631;-49
2021/04/14 04:18:54;;;;;;;14.80;3.40;;;3.20;99.90;;;;;;5075942;28;20667;-49
2021/04/14 04:21:22;;;;;;;9.77;2.75;;;3.00;99.90;;;;;;5076235;28;20672;-49
2021/04/14 04:23:48;;;;;;;8.55;2.80;;;3.30;99.90;;;;;;5076185;28;20226;-50
2021/04/14 04:26:15;;;;;;;12.48;4.22;;;3.60;99.90;;;;;;5075109;28;20242;-49
2021/04/14 04:28:41;;;;;;;13.48;3.63;;;3.40;99.90;;;;;;5075697;28;20256;-48
2021/04/14 04:31:09;;;;;;;15.00;3.63;;;3.30;99.90;;;;;;5075882;28;20199;-48
2021/04/14 04:33:35;;;;;;;9.45;3.70;;;3.30;99.90;;;;;;5074050;28;20261;-49
2021/04/14 04:36:02;;;;;;;13.80;4.28;;;3.20;99.90;;;;;;5075907;28;20215;-48
2021/04/14 04:38:28;;;;;;;16.60;4.32;;;3.50;99.90;;;;;;5075997;28;20703;-49
2021/04/14 04:40:56;;;;;;;10.07;3.70;;;3.50;99.90;;;;;;5075801;28;20303;-50
2021/04/14 04:43:22;;;;;;;12.50;3.67;;;3.30;99.90;;;;;;5075563;28;20212;-50
2021/04/14 04:45:50;;;;;;;18.83;3.58;;;3.40;99.90;;;;;;5075924;28;20242;-50
2021/04/14 04:48:18;;;;;;;6.65;3.10;;;3.30;99.90;;;;;;5075665;28;20648;-50
2021/04/14 04:50:44;;;;;;;15.05;5.15;;;3.40;99.90;;;;;;5087971;22;20713;-49
2021/04/14 04:53:14;;;;;;;10.68;3.20;;;3.40;99.90;;;;;;5072156;28;20195;-51
2021/04/14 04:55:41;;;;;;;15.15;3.60;;;3.50;99.90;;;;;;5072519;28;20574;-51
2021/04/14 04:58:07;;;;;;;21.30;4.43;;;3.40;99.90;;;;;;5072475;28;20217;-51
2021/04/14 05:00:34;;;;;;;15.48;3.78;;;3.60;99.90;;;;;;5072340;28;20561;-51
2021/04/14 05:03:00;;;;;;;11.68;4.78;;;3.40;99.90;;;;;;5072046;28;20199;-50
2021/04/14 05:05:29;;;;;;;10.90;3.95;;;3.50;99.90;;;;;;5071876;28;20722;-51
2021/04/14 05:07:56;;;;;;;11.18;3.55;;;3.80;99.90;;;;;;5072830;28;20202;-51
2021/04/14 05:10:22;;;;;;;18.60;4.20;;;3.70;99.90;;;;;;5072015;28;20258;-53
2021/04/14 05:12:50;;;;;;;13.85;3.80;;;3.50;99.90;;;;;;5070182;28;20644;-51
2021/04/14 05:15:22;;;;;;;18.63;4.95;;;3.40;99.90;;;;;;5071921;28;20200;-51
2021/04/14 05:17:49;;;;;;;12.63;4.13;;;3.70;99.90;;;;;;5071884;28;20195;-51
2021/04/14 05:20:16;;;;;;;18.80;5.80;;;3.50;99.90;;;;;;5071194;28;20215;-51
2021/04/14 05:22:44;;;;;;;17.95;5.75;;;3.70;99.90;;;;;;5070839;28;20267;-51
2021/04/14 05:25:11;;;;;;;20.20;5.07;;;3.60;99.90;;;;;;5071399;28;20608;-51
2021/04/14 05:27:38;;;;;;;18.65;4.50;;;3.80;99.90;;;;;;5071523;28;20199;-51
2021/04/14 05:30:06;;;;;;;13.38;4.05;;;3.40;99.90;;;;;;5071763;28;20211;-51
2021/04/14 05:32:32;;;;;;;14.77;3.92;;;3.80;99.90;;;;;;5071329;28;20284;-51
2021/04/14 05:34:59;;;;;;;12.75;4.78;;;3.80;99.90;;;;;;5071945;28;20261;-50
2021/04/14 05:37:26;;;;;;;15.93;4.97;;;3.90;99.90;;;;;;5069820;28;20214;-50
2021/04/14 05:39:53;;;;;;;15.55;4.60;;;4.10;99.90;;;;;;5071393;28;20216;-51
2021/04/14 05:42:20;;;;;;;11.52;4.40;;;4.20;99.90;;;;;;5071185;28;20199;-49
2021/04/14 05:44:46;;;;;;;17.88;4.75;;;4.40;99.90;;;;;;5071478;28;20200;-50
2021/04/14 05:47:12;;;;;;;12.40;3.85;;;4.30;99.90;;;;;;5071092;28;20619;-50
2021/04/14 05:49:39;;;;;;;9.98;3.67;;;4.20;99.90;;;;;;5069443;28;20334;-50
2021/04/14 05:52:05;;;;;;;12.05;3.78;;;4.40;99.90;;;;;;5071635;28;20249;-52
2021/04/14 05:54:32;;;;;;;19.35;4.95;;;4.60;99.90;;;;;;5070780;28;20233;-51
2021/04/14 05:56:59;;;;;;;8.95;4.00;;;4.70;99.90;;;;;;5071081;28;20230;-51
2021/04/14 05:59:25;;;;;;;11.82;4.30;;;4.10;99.90;;;;;;5070960;28;20534;-51
2021/04/14 06:01:52;;;;;;;10.70;4.30;;;3.70;99.90;;;;;;5070847;28;20202;-50
2021/04/14 06:04:18;;;;;;;16.13;5.10;;;4.10;99.90;;;;;;5070151;28;20272;-50
2021/04/14 06:06:45;;;;;;;12.27;3.90;;;4.70;99.90;;;;;;5070595;28;20219;-51
2021/04/14 06:09:11;;;;;;;16.17;4.80;;;4.70;99.90;;;;;;5070995;28;20195;-50
2021/04/14 06:11:38;;;;;;;14.00;4.43;;;4.60;99.90;;;;;;5070520;28;20196;-52
2021/04/14 06:14:06;;;;;;;15.35;4.82;;;4.70;99.90;;;;;;5069942;28;20218;-50
2021/04/14 06:16:32;;;;;;;14.00;4.43;;;4.50;99.90;;;;;;5070612;28;20191;-50
2021/04/14 06:18:58;;;;;;;10.25;5.40;;;4.70;99.90;;;;;;5070689;28;20188;-51
2021/04/14 06:21:25;;;;;;;14.07;4.57;;;4.90;99.90;;;;;;5070659;28;20207;-51
2021/04/14 06:23:52;;;;;;;11.20;4.82;;;4.60;99.90;;;;;;5069978;28;20312;-51
2021/04/14 06:26:27;;;;;;;19.27;6.38;;;4.90;99.90;;;;;;5069912;28;20308;-50
2021/04/14 06:28:54;;;;;;;14.45;5.50;;;5.00;99.90;;;;;;5069747;28;20287;-51
2021/04/14 06:31:22;;;;;;;14.90;4.68;;;4.90;99.90;;;;;;5069498;28;20222;-52
2021/04/14 06:33:52;;;;;;;12.35;4.97;;;5.00;99.90;;;;;;5069604;28;20269;-51
2021/04/14 06:36:19;;;;;;;20.30;5.55;;;5.00;99.90;;;;;;5067980;28;20647;-52
2021/04/14 06:38:47;;;;;;;13.32;5.13;;;4.90;99.90;;;;;;5069837;28;20214;-51
2021/04/14 06:44:27;;;;;;;16.52;4.47;;;5.20;99.90;;;;;;5058571;28;20695;-51
2021/04/14 06:46:56;;;;;;;14.60;5.65;;;5.30;99.90;;;;;;5070146;28;20265;-51
2021/04/14 06:49:30;;;;;;;19.40;5.43;;;5.30;99.90;;;;;;5070091;28;20195;-51
2021/04/14 06:52:06;;;;;;;16.13;5.22;;;5.40;99.90;;;;;;5069405;28;20202;-51
2021/04/14 06:54:38;;;;;;;21.60;6.97;;;5.30;99.90;;;;;;5069701;28;20690;-51
2021/04/14 06:57:11;;;;;;;13.77;5.32;;;5.30;99.90;;;;;;5069791;28;20198;-51
2021/04/14 06:59:37;;;;;;;20.48;5.50;;;5.40;99.90;;;;;;5069726;28;20215;-51
2021/04/14 07:02:07;;;;;;;11.38;3.90;;;5.40;99.90;;;;;;5070082;28;20249;-51
2021/04/14 07:04:40;;;;;;;8.38;3.65;;;5.40;99.90;;;;;;5069570;28;20576;-51
2021/04/14 07:07:12;;;;;;;15.13;4.22;;;5.60;99.90;;;;;;5069728;28;20215;-52
2021/04/14 07:09:41;;;;;;;15.20;4.25;;;5.60;99.90;;;;;;5069971;28;20583;-51
2021/04/14 07:12:11;;;;;;;15.35;4.78;;;5.50;99.90;;;;;;5069300;28;20207;-50
2021/04/14 07:14:38;;;;;;;15.13;5.03;;;5.80;99.90;;;;;;5069180;28;20274;-50
2021/04/14 07:17:18;;;;;;;9.32;4.32;;;5.30;99.90;;;;;;5069277;28;20199;-50
2021/04/14 07:20:09;;;;;;;14.13;4.75;;;5.90;99.90;;;;;;5069642;28;20218;-51
2021/04/14 07:22:47;;;;;;;14.13;4.20;;;6.00;99.90;;;;;;5069298;28;20699;-50
2021/04/14 07:25:19;;;;;;;13.07;4.75;;;5.90;99.90;;;;;;5069940;28;20225;-51
2021/04/14 07:27:57;;;;;;;20.27;4.65;;;5.90;99.90;;;;;;5069309;28;20280;-50
2021/04/14 07:30:27;;;;;;;14.50;3.97;;;5.40;99.90;;;;;;5069440;28;20219;-51
2021/04/14 07:33:09;;;;;;;12.03;3.50;;;6.20;99.90;;;;;;5069056;28;20279;-51
2021/04/14 07:35:41;;;;;;;12.03;4.40;;;6.10;99.90;;;;;;5069071;28;20414;-49
2021/04/14 07:38:15;;;;;;;10.35;4.25;;;6.00;99.90;;;;;;5068623;28;20421;-51
2021/04/14 07:40:48;;;;;;;13.50;3.92;;;6.20;99.90;;;;;;5068969;28;20219;-51
2021/04/14 07:43:26;;;;;;;15.95;5.78;;;6.40;99.90;;;;;;5068651;28;20195;-51
2021/04/14 07:45:52;;;;;;;13.88;5.43;;;6.30;99.90;;;;;;5075664;28;20301;-51
2021/04/14 07:48:23;;;;;;;13.70;4.20;;;6.40;99.90;;;;;;5075921;28;20287;-52
2021/04/14 07:50:54;;;;;;;9.67;3.40;;;6.20;99.90;;;;;;5075948;28;20528;-51
2021/04/14 07:53:23;;;;;;;8.45;4.40;;;6.50;99.90;;;;;;5075779;28;20532;-51
2021/04/14 07:56:01;;;;;;;14.10;4.00;;;6.90;99.90;;;;;;5075804;28;20232;-52
2021/04/14 07:58:28;;;;;;;8.83;3.87;;;6.70;99.90;;;;;;5075462;28;20721;-52
2021/04/14 08:00:55;;;;;;;13.17;3.70;;;6.80;99.90;;;;;;5075233;28;20518;-51
2021/04/14 08:03:27;;;;;;;8.00;3.93;;;6.80;99.90;;;;;;5075479;28;20434;-51
2021/04/14 08:06:05;;;;;;;9.50;3.80;;;6.90;99.90;;;;;;5075637;28;20489;-52
2021/04/14 08:08:32;;;;;;;12.20;3.53;;;6.90;99.90;;;;;;5075783;28;20923;-52
2021/04/14 08:11:03;;;;;;;13.27;4.20;;;7.20;99.90;;;;;;5075565;28;20454;-51
2021/04/14 08:13:38;;;;;;;9.57;3.80;;;7.10;99.90;;;;;;5075834;28;20426;-51
2021/04/14 08:16:18;;;;;;;16.33;3.50;;;7.10;99.90;;;;;;5075717;28;20427;-51
2021/04/14 08:18:58;;;;;;;12.50;4.50;;;7.20;99.90;;;;;;5075795;28;20898;-51
2021/04/14 08:21:29;;;;;;;18.60;4.50;;;7.40;99.90;;;;;;5075834;28;20454;-52
2021/04/14 08:23:56;;;;;;;9.80;3.93;;;7.40;99.90;;;;;;5075218;28;20515;-51
2021/04/14 08:26:24;;;;;;;13.80;5.10;;;7.40;99.90;;;;;;5075660;28;20472;-51
2021/04/14 08:28:52;;;;;;;7.27;2.90;;;7.60;99.90;;;;;;5073858;28;20466;-51
2021/04/14 08:31:34;;;;;;;12.27;3.83;;;7.60;99.90;;;;;;5075222;28;20454;-50
2021/04/14 08:34:16;;;;;;;13.80;4.30;;;7.50;99.90;;;;;;5074993;28;20442;-52
2021/04/14 08:36:50;;;;;;;12.80;4.20;;;7.90;99.90;;;;;;5074154;28;20447;-51
2021/04/14 08:39:19;;;;;;;7.70;2.77;;;7.60;98.70;;;;;;5075655;28;20547;-52
2021/04/14 08:41:46;;;;;;;12.50;3.43;;;7.40;98.60;;;;;;5075541;28;20470;-51
2021/04/14 08:44:16;;;;;;;12.13;3.87;;;7.80;99.00;;;;;;5075055;28;20446;-51
2021/04/14 08:46:44;;;;;;;6.67;3.50;;;8.00;98.80;;;;;;5075449;28;20477;-51
2021/04/14 08:49:17;;;;;;;12.47;4.40;;;7.90;97.90;;;;;;5075280;28;20447;-51
2021/04/14 08:51:47;;;;;;;9.30;4.30;;;7.90;97.60;;;;;;5075397;28;20442;-50
2021/04/14 08:54:17;;;;;;;9.60;3.83;;;7.90;97.50;;;;;;5075041;28;20758;-51
2021/04/14 08:56:44;;;;;;;6.80;2.90;;;7.90;97.70;;;;;;5069849;28;20455;-50
2021/04/14 08:59:11;;;;;;;12.80;3.03;;;7.80;97.40;;;;;;5072277;28;20589;-51
2021/04/14 09:01:38;;;;;;;8.60;2.87;;;8.20;97.90;;;;;;5072022;28;20423;-51
2021/04/14 09:04:08;;;;;;;9.60;3.10;;;8.00;97.40;;;;;;5071597;28;20431;-51
2021/04/14 09:06:38;;;;;;;10.53;2.73;;;8.50;98.00;;;;;;5071863;28;20474;-52
2021/04/14 09:09:06;;;;;;;8.37;3.13;;;8.60;96.80;;;;;;5071858;28;20441;-52
2021/04/14 09:11:34;;;;;;;6.57;2.47;;;8.50;95.60;;;;;;5072063;28;20523;-51
2021/04/14 09:14:04;;;;;;;9.53;3.13;;;8.60;95.10;;;;;;5070962;28;20502;-51
2021/04/14 09:16:38;;;;;;;15.13;4.00;;;8.40;94.80;;;;;;5071612;28;20416;-51
2021/04/14 09:19:21;;;;;;;11.30;3.20;;;8.40;93.50;;;;;;5071477;28;20733;-51
2021/04/14 09:21:52;;;;;;;13.93;3.80;;;8.40;94.00;;;;;;5071764;28;20501;-51
2021/04/14 09:24:37;;;;;;;10.93;2.80;;;8.70;94.60;;;;;;5069826;28;20457;-51
2021/04/14 09:27:06;;;;;;;7.00;3.00;;;8.40;94.90;;;;;;5071042;28;20594;-51
2021/04/14 09:29:46;;;;;;;13.60;4.87;;;8.50;95.20;;;;;;5071182;28;20524;-53
2021/04/14 09:32:15;;;;;;;9.80;3.60;;;8.70;95.00;;;;;;5071374;28;20872;-52
2021/04/14 09:34:43;;;;;;;13.30;3.10;;;8.70;95.30;;;;;;5071213;28;20936;-51
2021/04/14 09:37:31;;;;;;;12.10;3.60;;;8.50;95.10;;;;;;5070177;28;20497;-51
2021/04/14 09:40:05;;;;;;;7.43;2.93;;;8.60;93.90;;;;;;5071598;28;20517;-52
2021/04/14 09:42:36;;;;;;;11.03;2.50;;;8.60;94.40;;;;;;5071323;28;20565;-51
2021/04/14 09:45:29;;;;;;;7.40;2.73;;;7.90;93.50;;;;;;5071015;28;20468;-52
2021/04/14 09:47:56;;;;;;;5.60;2.33;;;8.40;91.90;;;;;;5070864;28;20872;-52
2021/04/14 09:50:39;;;;;;;7.40;2.73;;;7.60;91.40;;;;;;5070599;28;20514;-52
2021/04/14 09:53:19;;;;;;;7.90;3.40;;;8.20;92.10;;;;;;5071047;28;20891;-52
2021/04/14 09:55:48;;;;;;;7.10;2.87;;;8.50;92.40;;;;;;5070678;28;20872;-51
2021/04/14 09:58:21;;;;;;;10.60;3.20;;;8.30;92.40;;;;;;5070787;28;20428;-52
2021/04/14 10:00:51;;;;;;;12.33;3.83;;;9.00;92.30;;;;;;5071163;28;20479;-51
2021/04/14 10:03:24;;;;;;;7.03;3.03;;;8.60;91.90;;;;;;5070700;28;20512;-51
2021/04/14 10:05:51;;;;;;;7.67;2.70;;;8.90;91.80;;;;;;5069061;28;20488;-52
2021/04/14 10:08:19;;;;;;;8.50;2.17;;;9.10;90.60;;;;;;5068872;28;20444;-51
2021/04/14 10:10:48;;;;;;;7.30;2.83;;;8.70;88.50;;;;;;5071045;28;20544;-51
2021/04/14 10:13:17;;;;;;;9.30;2.93;;;8.70;86.70;;;;;;5070748;28;20436;-52
2021/04/14 10:15:45;;;;;;;6.80;2.70;;;9.00;87.40;;;;;;5071216;28;20445;-51
2021/04/14 10:18:20;;;;;;;9.67;2.87;;;8.90;88.30;;;;;;5070124;28;20432;-51
2021/04/14 10:20:47;;;;;;;16.43;3.00;;;9.40;88.70;;;;;;5070226;28;20493;-52
2021/04/14 10:23:17;;;;;;;6.53;2.30;;;9.20;86.10;;;;;;5068761;28;20536;-51
2021/04/14 10:25:45;;;;;;;8.20;2.40;;;9.40;85.90;;;;;;5070542;28;20479;-52
2021/04/14 10:28:21;;;;;;;6.40;2.87;;;9.20;84.50;;;;;;5070222;28;20872;-52
2021/04/14 10:30:49;;;;;;;11.17;3.10;;;9.20;83.80;;;;;;5070145;28;20588;-50
2021/04/14 10:33:18;;;;;;;7.30;2.30;;;9.40;83.90;;;;;;5069879;28;20429;-51
2021/04/14 10:35:45;;;;;;;6.77;2.13;;;9.30;81.90;;;;;;5070628;28;20816;-52
2021/04/14 10:38:13;;;;;;;5.23;2.17;;;9.00;78.90;;;;;;5069971;28;20479;-52
2021/04/14 10:40:43;;;;;;;10.27;3.37;;;9.30;78.80;;;;;;5070068;28;20458;-50
2021/04/14 10:43:13;;;;;;;6.63;2.87;;;9.20;77.40;;;;;;5069540;28;20454;-51
2021/04/14 10:45:55;;;;;;;8.33;3.47;;;9.40;77.80;;;;;;5070183;28;20578;-51
2021/04/14 10:48:22;;;;;;;5.23;2.60;;;9.50;77.80;;;;;;5070255;28;20506;-50
2021/04/14 10:50:50;;;;;;;12.33;3.70;;;9.50;76.60;;;;;;5095822;22;20493;-49
2021/04/14 10:53:17;;;;;;;4.63;2.70;;;9.30;76.10;;;;;;5071659;28;20425;-51
2021/04/14 10:55:46;;;;;;;4.90;2.17;;;9.30;75.70;;;;;;5072213;28;20824;-49
2021/04/14 10:58:20;;;;;;;5.83;2.23;;;9.00;75.00;;;;;;5072020;28;20422;-49
2021/04/14 11:00:50;;;;;;;3.90;1.80;;;9.20;73.60;;;;;;5072038;28;20498;-49
2021/04/14 11:03:19;;;;;;;6.03;2.20;;;9.00;74.50;;;;;;5071512;28;20521;-48
2021/04/14 11:05:49;;;;;;;7.10;2.03;;;9.00;75.10;;;;;;5071441;28;20920;-48
2021/04/14 11:08:17;;;;;;;4.40;2.70;;;9.00;74.30;;;;;;5071320;28;20478;-49
2021/04/14 11:10:44;;;;;;;8.10;2.00;;;8.80;73.60;;;;;;5071339;28;20459;-51
2021/04/14 11:13:17;;;;;;;2.33;1.47;;;8.70;73.90;;;;;;5071329;28;20430;-49
2021/04/14 11:15:45;;;;;;;4.53;1.53;;;9.30;70.30;;;;;;5071763;28;20422;-48
2021/04/14 11:18:13;;;;;;;5.03;1.87;;;9.10;68.60;;;;;;5071144;28;20440;-48
2021/04/14 11:20:45;;;;;;;2.07;1.10;;;9.60;63.00;;;;;;5071021;28;20569;-51
2021/04/14 11:23:23;;;;;;;3.90;1.80;;;9.80;61.90;;;;;;5071085;28;20508;-48
2021/04/14 11:25:50;;;;;;;4.57;1.70;;;9.80;61.50;;;;;;5071583;28;20548;-50
2021/04/14 11:28:20;;;;;;;4.87;1.70;;;10.00;60.40;;;;;;5070994;28;20929;-48
2021/04/14 11:30:49;;;;;;;6.87;1.97;;;10.00;60.50;;;;;;5070820;28;20492;-50
2021/04/14 11:33:17;;;;;;;6.70;2.03;;;10.10;59.20;;;;;;5070566;28;20536;-48
2021/04/14 11:35:52;;;;;;;7.30;2.20;;;9.80;60.70;;;;;;5069605;28;20594;-50
2021/04/14 11:38:29;;;;;;;6.10;3.00;;;10.00;60.60;;;;;;5071426;28;20477;-50
2021/04/14 11:40:57;;;;;;;8.83;2.60;;;9.50;63.90;;;;;;5070993;28;20985;-49
2021/04/14 11:43:33;;;;;;;6.13;3.67;;;9.80;64.20;;;;;;5070908;28;20438;-49
2021/04/14 11:46:02;;;;;;;4.97;2.13;;;9.90;65.30;;;;;;5071509;28;20530;-49
2021/04/14 11:48:32;;;;;;;5.70;2.27;;;9.10;64.40;;;;;;5071230;28;20426;-48
2021/04/14 11:51:09;;;;;;;3.60;1.50;;;9.90;61.80;;;;;;5071412;28;20569;-48
2021/04/14 11:53:48;;;;;;;6.40;2.17;;;9.60;60.10;;;;;;5071136;28;20430;-48
2021/04/14 11:56:27;;;;;;;4.37;1.63;;;9.50;60.80;;;;;;5069629;28;20454;-49
2021/04/14 11:58:54;;;;;;;3.80;1.60;;;9.40;59.90;;;;;;5071129;28;20789;-49
2021/04/14 12:01:23;;;;;;;6.60;1.67;;;9.70;61.10;;;;;;5069851;28;20487;-49
2021/04/14 12:03:50;;;;;;;5.23;1.90;;;9.80;63.90;;;;;;5070490;28;20444;-50
2021/04/14 12:06:16;;;;;;;5.70;2.53;;;9.90;65.50;;;;;;5071465;28;20496;-50
2021/04/14 12:08:43;;;;;;;8.47;2.10;;;10.00;65.90;;;;;;5071948;28;20911;-47
2021/04/14 12:11:17;;;;;;;7.63;2.23;;;10.10;66.50;;;;;;5070924;28;20458;-50
2021/04/14 12:13:44;;;;;;;4.10;2.77;;;9.70;67.90;;;;;;5070383;28;20421;-50
2021/04/14 12:16:11;;;;;;;5.20;1.80;;;9.90;67.40;;;;;;5070889;28;20445;-50
2021/04/14 12:18:37;;;;;;;5.27;2.03;;;9.90;66.00;;;;;;5070626;28;20433;-50
2021/04/14 12:21:04;;;;;;;5.57;2.30;;;10.00;65.00;;;;;;5069621;28;20561;-53
2021/04/14 12:23:30;;;;;;;5.37;2.07;;;10.10;65.90;;;;;;5070220;28;20433;-50
2021/04/14 12:25:57;;;;;;;6.93;2.10;;;10.00;65.70;;;;;;5070983;28;20665;-50
2021/04/14 12:28:23;;;;;;;7.90;2.20;;;10.60;66.30;;;;;;5070868;28;20772;-51
2021/04/14 12:30:49;;;;;;;5.23;2.13;;;10.10;66.00;;;;;;5072895;28;20591;-49
2021/04/14 12:33:17;;;;;;;9.73;2.57;;;10.00;65.70;;;;;;5074464;28;20425;-51
2021/04/14 12:35:44;;;;;;;4.40;2.47;;;9.80;65.90;;;;;;5074592;28;20453;-50
2021/04/14 12:38:11;;;;;;;5.37;1.80;;;9.80;65.60;;;;;;5074525;28;20902;-50
2021/04/14 12:40:38;;;;;;;5.50;2.60;;;9.90;69.00;;;;;;5073048;28;20986;-50
2021/04/14 12:43:04;;;;;;;7.17;2.13;;;9.80;72.40;;;;;;5074135;28;20425;-51
2021/04/14 12:45:38;;;;;;;10.30;2.63;;;9.70;75.30;;;;;;5074094;28;20456;-51
2021/04/14 12:48:09;;;;;;;5.37;2.27;;;9.40;75.10;;;;;;5074204;28;20788;-50
2021/04/14 12:50:36;;;;;;;5.73;2.20;;;10.00;74.60;;;;;;5074013;28;20560;-51
2021/04/14 12:53:05;;;;;;;4.40;2.80;;;10.10;74.50;;;;;;5073636;28;20457;-50
2021/04/14 12:55:37;;;;;;;11.33;3.23;;;10.10;73.50;;;;;;5073942;28;20453;-49
2021/04/14 12:58:06;;;;;;;9.00;2.50;;;10.10;73.10;;;;;;5074198;28;20529;-50
2021/04/14 13:00:33;;;;;;;10.30;3.40;;;10.50;73.30;;;;;;5074158;28;20449;-50
2021/04/14 13:03:07;;;;;;;7.90;3.40;;;10.60;73.10;;;;;;5074311;28;20434;-50